HKE747 WMKP-VHHH
Flight info
| Callsign | HKE747 |
|---|---|
| Flight time | 3h 20m |
| Altitude | 35000 |
| Route | BETNU1B BETNU W546 VKB M765 IGARI/K0869F350 M765 DAGAG M771 DAMEL/K0859F360 M771 DOSUT/N0462F360 M771 DULOP/N0463F350 Q1 CARSO/N0462F360 V551 CYBER/N0462F350 V551 BETTY |
| Aircraft | A321/M-SDE3FGHIRWY/LB1 |
Departure
| Time | 2026-04-26 09:20 |
|---|---|
| Airport | Penang International Airport (WMKP) |
Arrival
| Time | 2026-04-26 12:40 |
|---|---|
| Airport | Hong Kong International Airport (VHHH) |
| Time | Latitude | Longitude | Altitude | Speed | Heading |
|---|---|---|---|---|---|
| 2026-04-26 08:20 | 5.29090 | 100.26530 | 23 ft | 0 kts | 324° |
| 2026-04-26 09:08 | 5.29081 | 100.26536 | 24 ft | 2 kts | 319° |
| 2026-04-26 09:08 | 5.29069 | 100.26546 | 23 ft | 2 kts | 316° |
| 2026-04-26 09:08 | 5.29057 | 100.26558 | 23 ft | 2 kts | 308° |
| 2026-04-26 09:08 | 5.29048 | 100.26572 | 24 ft | 2 kts | 291° |
| 2026-04-26 09:09 | 5.29044 | 100.26588 | 23 ft | 2 kts | 259° |
| 2026-04-26 09:09 | 5.29049 | 100.26604 | 23 ft | 2 kts | 230° |
| 2026-04-26 09:09 | 5.29055 | 100.26610 | 23 ft | 0 kts | 223° |
| 2026-04-26 09:12 | 5.29051 | 100.26607 | 23 ft | 2 kts | 223° |
| 2026-04-26 09:12 | 5.29035 | 100.26597 | 25 ft | 4 kts | 202° |
| 2026-04-26 09:12 | 5.28999 | 100.26598 | 23 ft | 6 kts | 163° |
| 2026-04-26 09:12 | 5.28962 | 100.26625 | 23 ft | 7 kts | 134° |
| 2026-04-26 09:13 | 5.28928 | 100.26665 | 23 ft | 8 kts | 121° |
| 2026-04-26 09:13 | 5.28938 | 100.26719 | 24 ft | 11 kts | 56° |
| 2026-04-26 09:13 | 5.29027 | 100.26801 | 23 ft | 23 kts | 42° |
| 2026-04-26 09:13 | 5.29152 | 100.26915 | 24 ft | 24 kts | 41° |
| 2026-04-26 09:14 | 5.29280 | 100.27029 | 23 ft | 24 kts | 41° |
| 2026-04-26 09:14 | 5.29406 | 100.27143 | 25 ft | 24 kts | 42° |
| 2026-04-26 09:14 | 5.29532 | 100.27257 | 23 ft | 24 kts | 42° |
| 2026-04-26 09:14 | 5.29658 | 100.27372 | 23 ft | 24 kts | 41° |
| 2026-04-26 09:15 | 5.29785 | 100.27486 | 23 ft | 24 kts | 42° |
| 2026-04-26 09:15 | 5.29908 | 100.27600 | 23 ft | 24 kts | 43° |
| 2026-04-26 09:15 | 5.30033 | 100.27716 | 23 ft | 24 kts | 43° |
| 2026-04-26 09:15 | 5.30156 | 100.27833 | 24 ft | 24 kts | 45° |
| 2026-04-26 09:16 | 5.30275 | 100.27952 | 24 ft | 24 kts | 45° |
| 2026-04-26 09:16 | 5.30395 | 100.28072 | 22 ft | 24 kts | 43° |
| 2026-04-26 09:16 | 5.30521 | 100.28187 | 22 ft | 24 kts | 41° |
| 2026-04-26 09:16 | 5.30647 | 100.28301 | 23 ft | 24 kts | 42° |
| 2026-04-26 09:17 | 5.30772 | 100.28415 | 23 ft | 24 kts | 43° |
| 2026-04-26 09:17 | 5.30865 | 100.28502 | 24 ft | 15 kts | 43° |
| 2026-04-26 09:17 | 5.30911 | 100.28586 | 23 ft | 14 kts | 91° |
| 2026-04-26 09:17 | 5.30869 | 100.28651 | 26 ft | 9 kts | 135° |
| 2026-04-26 09:18 | 5.30818 | 100.28673 | 27 ft | 8 kts | 186° |
| 2026-04-26 09:18 | 5.30767 | 100.28640 | 27 ft | 10 kts | 224° |
| 2026-04-26 09:18 | 5.30732 | 100.28608 | 24 ft | 0 kts | 222° |
| 2026-04-26 09:18 | 5.30732 | 100.28607 | 24 ft | 2 kts | 222° |
| 2026-04-26 09:19 | 5.30560 | 100.28451 | 24 ft | 68 kts | 222° |
| 2026-04-26 09:19 | 5.30044 | 100.27984 | 26 ft | 129 kts | 222° |
| 2026-04-26 09:19 | 5.29256 | 100.27269 | 34 ft | 173 kts | 221° |
| 2026-04-26 09:19 | 5.28334 | 100.26449 | 529 ft | 177 kts | 220° |
| 2026-04-26 09:20 | 5.27399 | 100.25653 | 1203 ft | 175 kts | 220° |
| 2026-04-26 09:20 | 5.26353 | 100.25052 | 1790 ft | 177 kts | 192° |
| 2026-04-26 09:20 | 5.25089 | 100.25244 | 1908 ft | 197 kts | 159° |
| 2026-04-26 09:20 | 5.23790 | 100.25844 | 2029 ft | 215 kts | 155° |
| 2026-04-26 09:21 | 5.22404 | 100.26535 | 2154 ft | 233 kts | 155° |
| 2026-04-26 09:21 | 5.20876 | 100.27292 | 2274 ft | 255 kts | 155° |
| 2026-04-26 09:21 | 5.19356 | 100.28292 | 2639 ft | 268 kts | 133° |
| 2026-04-26 09:21 | 5.18422 | 100.29914 | 3180 ft | 273 kts | 104° |
| 2026-04-26 09:22 | 5.18337 | 100.31809 | 3763 ft | 276 kts | 78° |
| 2026-04-26 09:22 | 5.19009 | 100.33601 | 4390 ft | 277 kts | 63° |
| 2026-04-26 09:22 | 5.19880 | 100.35315 | 5017 ft | 279 kts | 62° |
| 2026-04-26 09:22 | 5.20779 | 100.37064 | 5649 ft | 281 kts | 62° |
| 2026-04-26 09:23 | 5.21690 | 100.38827 | 6288 ft | 282 kts | 62° |
| 2026-04-26 09:23 | 5.22602 | 100.40590 | 6930 ft | 284 kts | 62° |
| 2026-04-26 09:23 | 5.23512 | 100.42352 | 7509 ft | 286 kts | 62° |
| 2026-04-26 09:23 | 5.24430 | 100.44131 | 8104 ft | 288 kts | 63° |
| 2026-04-26 09:24 | 5.25350 | 100.45918 | 8666 ft | 290 kts | 62° |
| 2026-04-26 09:24 | 5.26273 | 100.47724 | 9204 ft | 292 kts | 63° |
| 2026-04-26 09:24 | 5.27202 | 100.49544 | 9750 ft | 294 kts | 63° |
| 2026-04-26 09:24 | 5.28136 | 100.51377 | 10223 ft | 300 kts | 63° |
| 2026-04-26 09:25 | 5.29112 | 100.53295 | 10344 ft | 317 kts | 63° |
| 2026-04-26 09:25 | 5.30141 | 100.55317 | 10473 ft | 333 kts | 63° |
| 2026-04-26 09:25 | 5.31222 | 100.57440 | 10602 ft | 349 kts | 63° |
| 2026-04-26 09:25 | 5.32348 | 100.59649 | 10726 ft | 363 kts | 63° |
| 2026-04-26 09:26 | 5.33523 | 100.61951 | 10856 ft | 377 kts | 63° |
| 2026-04-26 09:26 | 5.34714 | 100.64336 | 11097 ft | 385 kts | 66° |
| 2026-04-26 09:26 | 5.35564 | 100.66890 | 11532 ft | 388 kts | 77° |
| 2026-04-26 09:26 | 5.36067 | 100.69559 | 12024 ft | 390 kts | 79° |
| 2026-04-26 09:27 | 5.36559 | 100.72235 | 12540 ft | 392 kts | 79° |
| 2026-04-26 09:27 | 5.37060 | 100.74932 | 13036 ft | 394 kts | 79° |
| 2026-04-26 09:27 | 5.37565 | 100.77640 | 13523 ft | 396 kts | 79° |
| 2026-04-26 09:27 | 5.38076 | 100.80370 | 13997 ft | 399 kts | 79° |
| 2026-04-26 09:28 | 5.38591 | 100.83112 | 14460 ft | 402 kts | 79° |
| 2026-04-26 09:28 | 5.39108 | 100.85874 | 14926 ft | 404 kts | 79° |
| 2026-04-26 09:28 | 5.39627 | 100.88652 | 15379 ft | 406 kts | 79° |
| 2026-04-26 09:28 | 5.40145 | 100.91445 | 15808 ft | 409 kts | 79° |
| 2026-04-26 09:29 | 5.40666 | 100.94261 | 16234 ft | 411 kts | 79° |
| 2026-04-26 09:29 | 5.41190 | 100.97092 | 16661 ft | 414 kts | 79° |
| 2026-04-26 09:29 | 5.41717 | 100.99939 | 17056 ft | 416 kts | 79° |
| 2026-04-26 09:29 | 5.42248 | 101.02801 | 17396 ft | 418 kts | 79° |
| 2026-04-26 09:30 | 5.42788 | 101.05715 | 17773 ft | 421 kts | 79° |
| 2026-04-26 09:30 | 5.43325 | 101.08607 | 18146 ft | 422 kts | 79° |
| 2026-04-26 09:30 | 5.43863 | 101.11511 | 18505 ft | 424 kts | 79° |
| 2026-04-26 09:30 | 5.44403 | 101.14430 | 18844 ft | 426 kts | 79° |
| 2026-04-26 09:31 | 5.44947 | 101.17370 | 19151 ft | 429 kts | 79° |
| 2026-04-26 09:31 | 5.45493 | 101.20321 | 19462 ft | 432 kts | 79° |
| 2026-04-26 09:31 | 5.46044 | 101.23290 | 19770 ft | 434 kts | 79° |
| 2026-04-26 09:31 | 5.46600 | 101.26272 | 20067 ft | 436 kts | 79° |
| 2026-04-26 09:32 | 5.47161 | 101.29273 | 20338 ft | 439 kts | 79° |
| 2026-04-26 09:32 | 5.47721 | 101.32288 | 20620 ft | 441 kts | 79° |
| 2026-04-26 09:32 | 5.48282 | 101.35319 | 20875 ft | 443 kts | 79° |
| 2026-04-26 09:32 | 5.48845 | 101.38365 | 21130 ft | 445 kts | 79° |
| 2026-04-26 09:33 | 5.49407 | 101.41428 | 21385 ft | 447 kts | 79° |
| 2026-04-26 09:33 | 5.49971 | 101.44505 | 21628 ft | 449 kts | 79° |
| 2026-04-26 09:33 | 5.50537 | 101.47594 | 21840 ft | 451 kts | 79° |
| 2026-04-26 09:33 | 5.51109 | 101.50696 | 22093 ft | 453 kts | 79° |
| 2026-04-26 09:34 | 5.51687 | 101.53813 | 22352 ft | 455 kts | 79° |
| 2026-04-26 09:34 | 5.52268 | 101.56939 | 22590 ft | 457 kts | 79° |
| 2026-04-26 09:34 | 5.52850 | 101.60078 | 22803 ft | 459 kts | 79° |
| 2026-04-26 09:34 | 5.53434 | 101.63234 | 23025 ft | 461 kts | 79° |
| 2026-04-26 09:35 | 5.54017 | 101.66400 | 23240 ft | 462 kts | 79° |
| 2026-04-26 09:35 | 5.54599 | 101.69580 | 23465 ft | 464 kts | 79° |
| 2026-04-26 09:35 | 5.55186 | 101.72769 | 23660 ft | 465 kts | 79° |
| 2026-04-26 09:35 | 5.55780 | 101.75969 | 23840 ft | 468 kts | 79° |
| 2026-04-26 09:36 | 5.56377 | 101.79182 | 24034 ft | 469 kts | 79° |
| 2026-04-26 09:36 | 5.56974 | 101.82411 | 24232 ft | 471 kts | 79° |
| 2026-04-26 09:36 | 5.57570 | 101.85646 | 24435 ft | 472 kts | 79° |
| 2026-04-26 09:36 | 5.58337 | 101.88850 | 24615 ft | 474 kts | 71° |
| 2026-04-26 09:37 | 5.59645 | 101.91890 | 24808 ft | 476 kts | 61° |
| 2026-04-26 09:37 | 5.61508 | 101.94688 | 24998 ft | 477 kts | 51° |
| 2026-04-26 09:37 | 5.63817 | 101.97086 | 25205 ft | 479 kts | 40° |
| 2026-04-26 09:37 | 5.66518 | 101.99051 | 25404 ft | 481 kts | 33° |
| 2026-04-26 09:38 | 5.69331 | 102.00872 | 25602 ft | 482 kts | 33° |
| 2026-04-26 09:38 | 5.72152 | 102.02698 | 25873 ft | 482 kts | 33° |
| 2026-04-26 09:38 | 5.74963 | 102.04521 | 26173 ft | 480 kts | 33° |
| 2026-04-26 09:38 | 5.77767 | 102.06340 | 26462 ft | 480 kts | 33° |
| 2026-04-26 09:39 | 5.80567 | 102.08160 | 26751 ft | 479 kts | 33° |
| 2026-04-26 09:39 | 5.83358 | 102.09971 | 27035 ft | 478 kts | 33° |
| 2026-04-26 09:39 | 5.86152 | 102.11783 | 27322 ft | 477 kts | 33° |
| 2026-04-26 09:39 | 5.88935 | 102.13590 | 27604 ft | 476 kts | 33° |
| 2026-04-26 09:40 | 5.91710 | 102.15392 | 27922 ft | 475 kts | 33° |
| 2026-04-26 09:40 | 5.94483 | 102.17194 | 28196 ft | 474 kts | 33° |
| 2026-04-26 09:40 | 5.97252 | 102.18993 | 28473 ft | 473 kts | 33° |
| 2026-04-26 09:40 | 6.00014 | 102.20790 | 28755 ft | 472 kts | 33° |
| 2026-04-26 09:41 | 6.02768 | 102.22579 | 29044 ft | 471 kts | 33° |
| 2026-04-26 09:41 | 6.05518 | 102.24367 | 29332 ft | 470 kts | 33° |
| 2026-04-26 09:41 | 6.08243 | 102.26144 | 29594 ft | 470 kts | 33° |
| 2026-04-26 09:41 | 6.10985 | 102.27932 | 29876 ft | 469 kts | 32° |
| 2026-04-26 09:42 | 6.13693 | 102.29740 | 30157 ft | 468 kts | 36° |
| 2026-04-26 09:42 | 6.16146 | 102.31884 | 30416 ft | 468 kts | 46° |
| 2026-04-26 09:42 | 6.18216 | 102.34401 | 30657 ft | 468 kts | 54° |
| 2026-04-26 09:42 | 6.19977 | 102.37151 | 30882 ft | 469 kts | 57° |
| 2026-04-26 09:43 | 6.21157 | 102.39022 | 31044 ft | 469 kts | 57° |
| 2026-04-26 09:43 | 6.22901 | 102.41787 | 31295 ft | 468 kts | 57° |
| 2026-04-26 09:43 | 6.24644 | 102.44551 | 31543 ft | 468 kts | 57° |
| 2026-04-26 09:43 | 6.26385 | 102.47310 | 31782 ft | 468 kts | 57° |
| 2026-04-26 09:44 | 6.28127 | 102.50067 | 32024 ft | 467 kts | 57° |
| 2026-04-26 09:44 | 6.29866 | 102.52823 | 32262 ft | 467 kts | 57° |
| 2026-04-26 09:44 | 6.31605 | 102.55581 | 32495 ft | 466 kts | 57° |
| 2026-04-26 09:44 | 6.33340 | 102.58334 | 32714 ft | 467 kts | 57° |
| 2026-04-26 09:45 | 6.35072 | 102.61090 | 32823 ft | 467 kts | 57° |
| 2026-04-26 09:45 | 6.38536 | 102.66605 | 32854 ft | 467 kts | 57° |
| 2026-04-26 09:45 | 6.40276 | 102.69362 | 33073 ft | 466 kts | 57° |
| 2026-04-26 09:46 | 6.42013 | 102.72113 | 33305 ft | 466 kts | 57° |
| 2026-04-26 09:46 | 6.43749 | 102.74863 | 33531 ft | 466 kts | 57° |
| 2026-04-26 09:46 | 6.45476 | 102.77614 | 33746 ft | 465 kts | 57° |
| 2026-04-26 09:46 | 6.47201 | 102.80365 | 33968 ft | 465 kts | 57° |
| 2026-04-26 09:47 | 6.48921 | 102.83116 | 34186 ft | 465 kts | 57° |
| 2026-04-26 09:47 | 6.50609 | 102.85889 | 34402 ft | 465 kts | 58° |
| 2026-04-26 09:47 | 6.52267 | 102.88678 | 34610 ft | 464 kts | 58° |
| 2026-04-26 09:47 | 6.53911 | 102.91475 | 34787 ft | 465 kts | 59° |
| 2026-04-26 09:48 | 6.55552 | 102.94275 | 34837 ft | 466 kts | 59° |
| 2026-04-26 09:48 | 6.58860 | 102.99896 | 34831 ft | 467 kts | 58° |
| 2026-04-26 09:49 | 6.62203 | 103.05507 | 34829 ft | 467 kts | 58° |
| 2026-04-26 09:49 | 6.65552 | 103.11112 | 34832 ft | 467 kts | 58° |
| 2026-04-26 09:50 | 6.68892 | 103.16720 | 34832 ft | 468 kts | 58° |
| 2026-04-26 09:50 | 6.72248 | 103.22378 | 34835 ft | 468 kts | 58° |
| 2026-04-26 09:51 | 6.75583 | 103.28005 | 34832 ft | 468 kts | 58° |
| 2026-04-26 09:51 | 6.78927 | 103.33625 | 34833 ft | 468 kts | 58° |
| 2026-04-26 09:52 | 6.82273 | 103.39245 | 34836 ft | 469 kts | 58° |
| 2026-04-26 09:52 | 6.87278 | 103.47695 | 34844 ft | 469 kts | 58° |
| 2026-04-26 09:53 | 6.90609 | 103.53338 | 34846 ft | 469 kts | 58° |
| 2026-04-26 09:53 | 6.93946 | 103.58977 | 34844 ft | 469 kts | 58° |
| 2026-04-26 09:54 | 6.97308 | 103.64598 | 34851 ft | 469 kts | 58° |
| 2026-04-26 09:54 | 7.00691 | 103.70213 | 34855 ft | 469 kts | 58° |
| 2026-04-26 09:55 | 7.04072 | 103.75824 | 34859 ft | 469 kts | 58° |
| 2026-04-26 09:55 | 7.07449 | 103.81437 | 34860 ft | 468 kts | 58° |
| 2026-04-26 09:56 | 7.10812 | 103.87051 | 34855 ft | 468 kts | 58° |
| 2026-04-26 09:56 | 7.14175 | 103.92675 | 34856 ft | 468 kts | 58° |
| 2026-04-26 09:57 | 7.17542 | 103.98284 | 34856 ft | 468 kts | 58° |
| 2026-04-26 09:57 | 7.20915 | 104.03900 | 34860 ft | 469 kts | 58° |
| 2026-04-26 09:58 | 7.24305 | 104.09553 | 34861 ft | 469 kts | 58° |
| 2026-04-26 09:58 | 7.27667 | 104.15181 | 34863 ft | 469 kts | 58° |
| 2026-04-26 09:59 | 7.31006 | 104.20816 | 34863 ft | 468 kts | 59° |
| 2026-04-26 09:59 | 7.34327 | 104.26464 | 34862 ft | 468 kts | 59° |
| 2026-04-26 10:00 | 7.37659 | 104.32100 | 34862 ft | 468 kts | 58° |
| 2026-04-26 10:00 | 7.40999 | 104.37725 | 34861 ft | 468 kts | 58° |
| 2026-04-26 10:01 | 7.44342 | 104.43357 | 34860 ft | 468 kts | 59° |
| 2026-04-26 10:01 | 7.47675 | 104.48991 | 34861 ft | 468 kts | 59° |
| 2026-04-26 10:02 | 7.51002 | 104.54627 | 34862 ft | 468 kts | 59° |
| 2026-04-26 10:02 | 7.54333 | 104.60264 | 34861 ft | 468 kts | 58° |
| 2026-04-26 10:03 | 7.57664 | 104.65900 | 34863 ft | 468 kts | 58° |
| 2026-04-26 10:03 | 7.61002 | 104.71535 | 34862 ft | 468 kts | 58° |
| 2026-04-26 10:04 | 7.64325 | 104.77170 | 34863 ft | 468 kts | 59° |
| 2026-04-26 10:04 | 7.67644 | 104.82811 | 34863 ft | 468 kts | 59° |
| 2026-04-26 10:05 | 7.70976 | 104.88453 | 34864 ft | 468 kts | 58° |
| 2026-04-26 10:05 | 7.74307 | 104.94082 | 34862 ft | 468 kts | 58° |
| 2026-04-26 10:06 | 7.77637 | 104.99722 | 34864 ft | 468 kts | 58° |
| 2026-04-26 10:06 | 7.80957 | 105.05361 | 34864 ft | 468 kts | 58° |
| 2026-04-26 10:07 | 7.84299 | 105.11033 | 34864 ft | 467 kts | 58° |
| 2026-04-26 10:07 | 7.87632 | 105.16674 | 34859 ft | 467 kts | 58° |
| 2026-04-26 10:08 | 7.90943 | 105.22307 | 34861 ft | 467 kts | 58° |
| 2026-04-26 10:08 | 7.94250 | 105.27934 | 34860 ft | 466 kts | 58° |
| 2026-04-26 10:09 | 7.97555 | 105.33562 | 34857 ft | 466 kts | 58° |
| 2026-04-26 10:09 | 8.00867 | 105.39189 | 34850 ft | 467 kts | 58° |
| 2026-04-26 10:10 | 8.04188 | 105.44814 | 34847 ft | 467 kts | 58° |
| 2026-04-26 10:10 | 8.07502 | 105.50448 | 34846 ft | 467 kts | 58° |
| 2026-04-26 10:11 | 8.10818 | 105.56076 | 34843 ft | 466 kts | 58° |
| 2026-04-26 10:11 | 8.14126 | 105.61707 | 34844 ft | 466 kts | 58° |
| 2026-04-26 10:12 | 8.17434 | 105.67332 | 34842 ft | 465 kts | 58° |
| 2026-04-26 10:12 | 8.20733 | 105.72950 | 34841 ft | 465 kts | 58° |
| 2026-04-26 10:13 | 8.24033 | 105.78570 | 34836 ft | 465 kts | 58° |
| 2026-04-26 10:13 | 8.27339 | 105.84189 | 34835 ft | 466 kts | 58° |
| 2026-04-26 10:14 | 8.30644 | 105.89815 | 34834 ft | 466 kts | 58° |
| 2026-04-26 10:14 | 8.33941 | 105.95448 | 34835 ft | 466 kts | 58° |
| 2026-04-26 10:15 | 8.36707 | 106.00162 | 34836 ft | 466 kts | 58° |
| 2026-04-26 10:15 | 8.40570 | 106.06742 | 34833 ft | 466 kts | 58° |
| 2026-04-26 10:16 | 8.43313 | 106.11422 | 34832 ft | 466 kts | 58° |
| 2026-04-26 10:16 | 8.46611 | 106.17054 | 34832 ft | 466 kts | 58° |
| 2026-04-26 10:17 | 8.49918 | 106.22689 | 34831 ft | 466 kts | 58° |
| 2026-04-26 10:17 | 8.53222 | 106.28327 | 34832 ft | 466 kts | 58° |
| 2026-04-26 10:18 | 8.56528 | 106.33964 | 34816 ft | 466 kts | 58° |
| 2026-04-26 10:18 | 8.59845 | 106.39598 | 34831 ft | 467 kts | 58° |
| 2026-04-26 10:19 | 8.63148 | 106.45241 | 34829 ft | 467 kts | 58° |
| 2026-04-26 10:19 | 8.66444 | 106.50895 | 34831 ft | 466 kts | 58° |
| 2026-04-26 10:20 | 8.69738 | 106.56546 | 34830 ft | 467 kts | 58° |
| 2026-04-26 10:20 | 8.73021 | 106.62211 | 34819 ft | 468 kts | 62° |
| 2026-04-26 10:21 | 8.75573 | 106.68309 | 34829 ft | 468 kts | 67° |
| 2026-04-26 10:21 | 8.78047 | 106.74404 | 34834 ft | 469 kts | 66° |
| 2026-04-26 10:22 | 8.80544 | 106.80494 | 34836 ft | 469 kts | 66° |
| 2026-04-26 10:22 | 8.83026 | 106.86597 | 34838 ft | 470 kts | 66° |
| 2026-04-26 10:23 | 8.85495 | 106.92714 | 34842 ft | 470 kts | 66° |
| 2026-04-26 10:23 | 8.87962 | 106.98833 | 34840 ft | 470 kts | 66° |
| 2026-04-26 10:24 | 8.90427 | 107.04946 | 34838 ft | 470 kts | 67° |
| 2026-04-26 10:24 | 8.92878 | 107.11070 | 34839 ft | 470 kts | 67° |
| 2026-04-26 10:25 | 8.95339 | 107.17194 | 34839 ft | 470 kts | 66° |
| 2026-04-26 10:25 | 8.97809 | 107.23310 | 34838 ft | 470 kts | 66° |
| 2026-04-26 10:26 | 9.00285 | 107.29429 | 34841 ft | 470 kts | 66° |
| 2026-04-26 10:26 | 9.02759 | 107.35550 | 34845 ft | 470 kts | 67° |
| 2026-04-26 10:27 | 9.05225 | 107.41680 | 34845 ft | 470 kts | 66° |
| 2026-04-26 10:27 | 9.07709 | 107.47853 | 34848 ft | 471 kts | 66° |
| 2026-04-26 10:28 | 9.10185 | 107.53989 | 34850 ft | 471 kts | 66° |
| 2026-04-26 10:28 | 9.12650 | 107.60130 | 34849 ft | 471 kts | 66° |
| 2026-04-26 10:29 | 9.15115 | 107.66271 | 34849 ft | 472 kts | 66° |
| 2026-04-26 10:29 | 9.17591 | 107.72418 | 34851 ft | 472 kts | 66° |
| 2026-04-26 10:30 | 9.20069 | 107.78565 | 34852 ft | 472 kts | 66° |
| 2026-04-26 10:30 | 9.22541 | 107.84713 | 34851 ft | 472 kts | 66° |
| 2026-04-26 10:31 | 9.25003 | 107.90863 | 34848 ft | 472 kts | 66° |
| 2026-04-26 10:31 | 9.27467 | 107.97023 | 34849 ft | 472 kts | 66° |
| 2026-04-26 10:32 | 9.29943 | 108.03174 | 34847 ft | 472 kts | 66° |
| 2026-04-26 10:32 | 9.32413 | 108.09330 | 34847 ft | 472 kts | 66° |
| 2026-04-26 10:33 | 9.34875 | 108.15496 | 34852 ft | 473 kts | 66° |
| 2026-04-26 10:33 | 9.37335 | 108.21677 | 34858 ft | 473 kts | 66° |
| 2026-04-26 10:34 | 9.39803 | 108.27858 | 34861 ft | 473 kts | 66° |
| 2026-04-26 10:34 | 9.42277 | 108.34026 | 34863 ft | 473 kts | 66° |
| 2026-04-26 10:35 | 9.44829 | 108.40163 | 34860 ft | 472 kts | 60° |
| 2026-04-26 10:35 | 9.48776 | 108.45445 | 34860 ft | 467 kts | 41° |
| 2026-04-26 10:36 | 9.54015 | 108.49277 | 34859 ft | 465 kts | 32° |
| 2026-04-26 10:36 | 9.59423 | 108.52881 | 34858 ft | 465 kts | 32° |
| 2026-04-26 10:37 | 9.64827 | 108.56498 | 34859 ft | 465 kts | 32° |
| 2026-04-26 10:37 | 9.70231 | 108.60117 | 34857 ft | 466 kts | 32° |
| 2026-04-26 10:38 | 9.75638 | 108.63737 | 34861 ft | 466 kts | 32° |
| 2026-04-26 10:38 | 9.81048 | 108.67346 | 34865 ft | 466 kts | 32° |
| 2026-04-26 10:39 | 9.86460 | 108.70959 | 34868 ft | 466 kts | 32° |
| 2026-04-26 10:39 | 9.91871 | 108.74578 | 34866 ft | 466 kts | 32° |
| 2026-04-26 10:40 | 9.97277 | 108.78201 | 34863 ft | 465 kts | 32° |
| 2026-04-26 10:40 | 10.02676 | 108.81818 | 34865 ft | 466 kts | 32° |
| 2026-04-26 10:41 | 10.08090 | 108.85437 | 34864 ft | 466 kts | 32° |
| 2026-04-26 10:41 | 10.13506 | 108.89059 | 34869 ft | 466 kts | 32° |
| 2026-04-26 10:42 | 10.18045 | 108.92097 | 34865 ft | 467 kts | 32° |
| 2026-04-26 10:42 | 10.24376 | 108.96345 | 34869 ft | 466 kts | 32° |
| 2026-04-26 10:43 | 10.29756 | 108.99956 | 34871 ft | 466 kts | 32° |
| 2026-04-26 10:43 | 10.35214 | 109.03614 | 34872 ft | 467 kts | 32° |
| 2026-04-26 10:44 | 10.40232 | 109.06978 | 34873 ft | 467 kts | 32° |
| 2026-04-26 10:44 | 10.45688 | 109.10640 | 34878 ft | 467 kts | 32° |
| 2026-04-26 10:45 | 10.51110 | 109.14285 | 34876 ft | 467 kts | 32° |
| 2026-04-26 10:45 | 10.56537 | 109.17932 | 34878 ft | 467 kts | 32° |
| 2026-04-26 10:46 | 10.61964 | 109.21573 | 34882 ft | 468 kts | 32° |
| 2026-04-26 10:46 | 10.67393 | 109.25223 | 34888 ft | 468 kts | 32° |
| 2026-04-26 10:47 | 10.72830 | 109.28883 | 34898 ft | 468 kts | 32° |
| 2026-04-26 10:47 | 10.78266 | 109.32540 | 34903 ft | 468 kts | 32° |
| 2026-04-26 10:48 | 10.83701 | 109.36198 | 34904 ft | 468 kts | 32° |
| 2026-04-26 10:48 | 10.89135 | 109.39856 | 34898 ft | 468 kts | 32° |
| 2026-04-26 10:49 | 10.94569 | 109.43517 | 34895 ft | 468 kts | 32° |
| 2026-04-26 10:49 | 11.00001 | 109.47179 | 34892 ft | 469 kts | 32° |
| 2026-04-26 10:50 | 11.04558 | 109.50255 | 34892 ft | 469 kts | 32° |
| 2026-04-26 10:50 | 11.10886 | 109.54520 | 34894 ft | 469 kts | 32° |
| 2026-04-26 10:51 | 11.19094 | 109.59958 | 34898 ft | 470 kts | 31° |
| 2026-04-26 10:52 | 11.24598 | 109.63564 | 34900 ft | 470 kts | 31° |
| 2026-04-26 10:52 | 11.30130 | 109.67198 | 34899 ft | 471 kts | 31° |
| 2026-04-26 10:53 | 11.35627 | 109.70830 | 34902 ft | 471 kts | 31° |
| 2026-04-26 10:53 | 11.41130 | 109.74476 | 34902 ft | 472 kts | 31° |
| 2026-04-26 10:54 | 11.49396 | 109.79934 | 34904 ft | 472 kts | 31° |
| 2026-04-26 10:54 | 11.54917 | 109.83572 | 34901 ft | 472 kts | 31° |
| 2026-04-26 10:55 | 11.60427 | 109.87215 | 34897 ft | 472 kts | 31° |
| 2026-04-26 10:55 | 11.65011 | 109.90250 | 34893 ft | 473 kts | 31° |
| 2026-04-26 10:56 | 11.71456 | 109.94517 | 34896 ft | 473 kts | 31° |
| 2026-04-26 10:56 | 11.76974 | 109.98171 | 34900 ft | 473 kts | 31° |
| 2026-04-26 10:57 | 11.82499 | 110.01834 | 34900 ft | 473 kts | 31° |
| 2026-04-26 10:57 | 11.88026 | 110.05495 | 34901 ft | 474 kts | 31° |
| 2026-04-26 10:58 | 11.93552 | 110.09157 | 34900 ft | 474 kts | 31° |
| 2026-04-26 10:58 | 11.99081 | 110.12829 | 34901 ft | 474 kts | 31° |
| 2026-04-26 10:59 | 12.04606 | 110.16497 | 34902 ft | 474 kts | 31° |
| 2026-04-26 10:59 | 12.10138 | 110.20169 | 34905 ft | 474 kts | 31° |
| 2026-04-26 11:00 | 12.15671 | 110.23848 | 34906 ft | 474 kts | 31° |
| 2026-04-26 11:00 | 12.21242 | 110.27551 | 34910 ft | 475 kts | 31° |
| 2026-04-26 11:01 | 12.26787 | 110.31240 | 34909 ft | 475 kts | 31° |
| 2026-04-26 11:01 | 12.32318 | 110.34925 | 34907 ft | 475 kts | 31° |
| 2026-04-26 11:02 | 12.36918 | 110.37989 | 34906 ft | 475 kts | 31° |
| 2026-04-26 11:02 | 12.42407 | 110.41747 | 34906 ft | 475 kts | 32° |
| 2026-04-26 11:03 | 12.47855 | 110.45588 | 34907 ft | 476 kts | 33° |
| 2026-04-26 11:03 | 12.53305 | 110.49435 | 34906 ft | 476 kts | 32° |
| 2026-04-26 11:04 | 12.58772 | 110.53252 | 34903 ft | 475 kts | 32° |
| 2026-04-26 11:04 | 12.64243 | 110.57060 | 34905 ft | 476 kts | 32° |
| 2026-04-26 11:05 | 12.69710 | 110.60873 | 34905 ft | 476 kts | 32° |
| 2026-04-26 11:05 | 12.75217 | 110.64720 | 34905 ft | 476 kts | 32° |
| 2026-04-26 11:06 | 12.80698 | 110.68550 | 34906 ft | 477 kts | 32° |
| 2026-04-26 11:06 | 12.86166 | 110.72393 | 34905 ft | 477 kts | 32° |
| 2026-04-26 11:07 | 12.91631 | 110.76235 | 34904 ft | 477 kts | 32° |
| 2026-04-26 11:07 | 12.97112 | 110.80066 | 34903 ft | 477 kts | 32° |
| 2026-04-26 11:08 | 13.02594 | 110.83893 | 34903 ft | 477 kts | 32° |
| 2026-04-26 11:08 | 13.08070 | 110.87735 | 34903 ft | 477 kts | 32° |
| 2026-04-26 11:09 | 13.13547 | 110.91588 | 34906 ft | 477 kts | 32° |
| 2026-04-26 11:09 | 13.19024 | 110.95434 | 34907 ft | 478 kts | 32° |
| 2026-04-26 11:10 | 13.24513 | 110.99288 | 34907 ft | 478 kts | 32° |
| 2026-04-26 11:10 | 13.30008 | 111.03146 | 34909 ft | 479 kts | 32° |
| 2026-04-26 11:11 | 13.35500 | 111.07011 | 34909 ft | 479 kts | 32° |
| 2026-04-26 11:11 | 13.40998 | 111.10879 | 34914 ft | 479 kts | 32° |
| 2026-04-26 11:12 | 13.46498 | 111.14754 | 34918 ft | 480 kts | 32° |
| 2026-04-26 11:12 | 13.52007 | 111.18634 | 34920 ft | 480 kts | 32° |
| 2026-04-26 11:13 | 13.57512 | 111.22516 | 34918 ft | 480 kts | 32° |
| 2026-04-26 11:13 | 13.63030 | 111.26399 | 34917 ft | 481 kts | 32° |
| 2026-04-26 11:14 | 13.68584 | 111.30317 | 34920 ft | 481 kts | 32° |
| 2026-04-26 11:14 | 13.74105 | 111.34221 | 34922 ft | 482 kts | 32° |
| 2026-04-26 11:15 | 13.79633 | 111.38132 | 34922 ft | 482 kts | 32° |
| 2026-04-26 11:15 | 13.85166 | 111.42039 | 34919 ft | 483 kts | 32° |
| 2026-04-26 11:16 | 13.90702 | 111.45954 | 34923 ft | 483 kts | 32° |
| 2026-04-26 11:16 | 13.96245 | 111.49883 | 34926 ft | 484 kts | 32° |
| 2026-04-26 11:17 | 14.01797 | 111.53802 | 34924 ft | 484 kts | 32° |
| 2026-04-26 11:17 | 14.07366 | 111.57706 | 34922 ft | 485 kts | 31° |
| 2026-04-26 11:18 | 14.12948 | 111.61619 | 34923 ft | 485 kts | 32° |
| 2026-04-26 11:18 | 14.18520 | 111.65553 | 34924 ft | 485 kts | 32° |
| 2026-04-26 11:19 | 14.24089 | 111.69484 | 34926 ft | 485 kts | 32° |
| 2026-04-26 11:19 | 14.29661 | 111.73417 | 34924 ft | 486 kts | 32° |
| 2026-04-26 11:20 | 14.34331 | 111.76717 | 34923 ft | 486 kts | 32° |
| 2026-04-26 11:20 | 14.40816 | 111.81291 | 34922 ft | 486 kts | 32° |
| 2026-04-26 11:21 | 14.46395 | 111.85232 | 34926 ft | 486 kts | 32° |
| 2026-04-26 11:21 | 14.51978 | 111.89173 | 34926 ft | 486 kts | 32° |
| 2026-04-26 11:22 | 14.57594 | 111.93149 | 34926 ft | 486 kts | 32° |
| 2026-04-26 11:22 | 14.63163 | 111.97095 | 34923 ft | 485 kts | 32° |
| 2026-04-26 11:23 | 14.68734 | 112.01041 | 34920 ft | 486 kts | 32° |
| 2026-04-26 11:23 | 14.74319 | 112.04981 | 34919 ft | 487 kts | 31° |
| 2026-04-26 11:24 | 14.79929 | 112.08909 | 34919 ft | 487 kts | 31° |
| 2026-04-26 11:24 | 14.85533 | 112.12841 | 34919 ft | 487 kts | 31° |
| 2026-04-26 11:25 | 14.91137 | 112.16775 | 34917 ft | 488 kts | 31° |
| 2026-04-26 11:25 | 14.96747 | 112.20726 | 34918 ft | 488 kts | 31° |
| 2026-04-26 11:26 | 15.02358 | 112.24679 | 34923 ft | 488 kts | 31° |
| 2026-04-26 11:26 | 15.07970 | 112.28637 | 34925 ft | 488 kts | 31° |
| 2026-04-26 11:27 | 15.13585 | 112.32597 | 34926 ft | 489 kts | 31° |
| 2026-04-26 11:27 | 15.19205 | 112.36558 | 34927 ft | 489 kts | 31° |
| 2026-04-26 11:28 | 15.24831 | 112.40532 | 34926 ft | 490 kts | 31° |
| 2026-04-26 11:28 | 15.30457 | 112.44510 | 34932 ft | 490 kts | 31° |
| 2026-04-26 11:29 | 15.36090 | 112.48488 | 34930 ft | 490 kts | 31° |
| 2026-04-26 11:29 | 15.41766 | 112.52507 | 34930 ft | 490 kts | 31° |
| 2026-04-26 11:30 | 15.46444 | 112.55819 | 34937 ft | 490 kts | 31° |
| 2026-04-26 11:30 | 15.53029 | 112.60487 | 34930 ft | 491 kts | 31° |
| 2026-04-26 11:31 | 15.58664 | 112.64482 | 34931 ft | 490 kts | 31° |
| 2026-04-26 11:31 | 15.64298 | 112.68475 | 34929 ft | 491 kts | 31° |
| 2026-04-26 11:32 | 15.69937 | 112.72474 | 34930 ft | 491 kts | 31° |
| 2026-04-26 11:32 | 15.75569 | 112.76482 | 34930 ft | 491 kts | 31° |
| 2026-04-26 11:33 | 15.81205 | 112.80497 | 34932 ft | 491 kts | 31° |
| 2026-04-26 11:33 | 15.86842 | 112.84506 | 34930 ft | 491 kts | 31° |
| 2026-04-26 11:34 | 15.92489 | 112.88512 | 34934 ft | 492 kts | 31° |
| 2026-04-26 11:34 | 15.98134 | 112.92534 | 34935 ft | 492 kts | 31° |
| 2026-04-26 11:35 | 16.03783 | 112.96562 | 34936 ft | 492 kts | 31° |
| 2026-04-26 11:35 | 16.08522 | 112.99935 | 34932 ft | 493 kts | 31° |
| 2026-04-26 11:36 | 16.15097 | 113.04630 | 34944 ft | 494 kts | 31° |
| 2026-04-26 11:36 | 16.20758 | 113.08672 | 34943 ft | 494 kts | 31° |
| 2026-04-26 11:37 | 16.25501 | 113.12063 | 34944 ft | 494 kts | 31° |
| 2026-04-26 11:37 | 16.31159 | 113.16114 | 34944 ft | 494 kts | 31° |
| 2026-04-26 11:38 | 16.36816 | 113.20169 | 34946 ft | 494 kts | 31° |
| 2026-04-26 11:38 | 16.42477 | 113.24220 | 34950 ft | 494 kts | 31° |
| 2026-04-26 11:39 | 16.48144 | 113.28266 | 34944 ft | 494 kts | 31° |
| 2026-04-26 11:39 | 16.53804 | 113.32337 | 34949 ft | 494 kts | 31° |
| 2026-04-26 11:40 | 16.59458 | 113.36404 | 34949 ft | 494 kts | 31° |
| 2026-04-26 11:40 | 16.65112 | 113.40465 | 34951 ft | 494 kts | 31° |
| 2026-04-26 11:42 | 16.87709 | 113.56729 | 34944 ft | 493 kts | 31° |
| 2026-04-26 11:43 | 16.93387 | 113.60815 | 34944 ft | 492 kts | 31° |
| 2026-04-26 11:43 | 16.99023 | 113.64880 | 34947 ft | 492 kts | 31° |
| 2026-04-26 11:44 | 17.04654 | 113.68948 | 34943 ft | 492 kts | 30° |
| 2026-04-26 11:44 | 17.10299 | 113.72985 | 34948 ft | 491 kts | 30° |
| 2026-04-26 11:45 | 17.15958 | 113.76992 | 34945 ft | 491 kts | 30° |
| 2026-04-26 11:45 | 17.21614 | 113.81010 | 34940 ft | 491 kts | 30° |
| 2026-04-26 11:46 | 17.27252 | 113.85031 | 34944 ft | 491 kts | 30° |
| 2026-04-26 11:46 | 17.32887 | 113.89062 | 34944 ft | 491 kts | 30° |
| 2026-04-26 11:47 | 17.38517 | 113.93097 | 34944 ft | 490 kts | 30° |
| 2026-04-26 11:47 | 17.44148 | 113.97128 | 34947 ft | 490 kts | 30° |
| 2026-04-26 11:48 | 17.49787 | 114.01151 | 34944 ft | 490 kts | 30° |
| 2026-04-26 11:48 | 17.55420 | 114.05184 | 34943 ft | 490 kts | 30° |
| 2026-04-26 11:49 | 17.61036 | 114.09226 | 34947 ft | 490 kts | 30° |
| 2026-04-26 11:49 | 17.66660 | 114.13261 | 34945 ft | 490 kts | 30° |
| 2026-04-26 11:50 | 17.72282 | 114.17293 | 34954 ft | 489 kts | 30° |
| 2026-04-26 11:50 | 17.77933 | 114.21348 | 34953 ft | 489 kts | 30° |
| 2026-04-26 11:51 | 17.83547 | 114.25382 | 34949 ft | 489 kts | 30° |
| 2026-04-26 11:51 | 17.89156 | 114.29421 | 34949 ft | 489 kts | 30° |
| 2026-04-26 11:52 | 17.93818 | 114.32779 | 34953 ft | 489 kts | 30° |
| 2026-04-26 11:52 | 18.00371 | 114.37506 | 34958 ft | 489 kts | 30° |
| 2026-04-26 11:53 | 18.05981 | 114.41551 | 34958 ft | 489 kts | 30° |
| 2026-04-26 11:54 | 18.14390 | 114.47633 | 34960 ft | 489 kts | 30° |
| 2026-04-26 11:54 | 18.19998 | 114.51676 | 34959 ft | 489 kts | 29° |
| 2026-04-26 11:55 | 18.26020 | 114.54736 | 34958 ft | 476 kts | 11° |
| 2026-04-26 11:55 | 18.32435 | 114.56237 | 34958 ft | 472 kts | 6° |
| 2026-04-26 11:56 | 18.38874 | 114.57640 | 34959 ft | 473 kts | 6° |
| 2026-04-26 11:56 | 18.45317 | 114.59061 | 34961 ft | 473 kts | 6° |
| 2026-04-26 11:57 | 18.51762 | 114.60478 | 34961 ft | 473 kts | 6° |
| 2026-04-26 11:57 | 18.58206 | 114.61881 | 34961 ft | 473 kts | 6° |
| 2026-04-26 11:58 | 18.64694 | 114.63288 | 34963 ft | 473 kts | 6° |
| 2026-04-26 11:58 | 18.71143 | 114.64700 | 34961 ft | 473 kts | 6° |
| 2026-04-26 11:59 | 18.77587 | 114.66122 | 34961 ft | 473 kts | 6° |
| 2026-04-26 11:59 | 18.84036 | 114.67542 | 34959 ft | 473 kts | 6° |
| 2026-04-26 12:00 | 18.90483 | 114.68957 | 34961 ft | 474 kts | 6° |
| 2026-04-26 12:00 | 18.96932 | 114.70380 | 34961 ft | 473 kts | 6° |
| 2026-04-26 12:01 | 19.03388 | 114.70773 | 34959 ft | 460 kts | 349° |
| 2026-04-26 12:01 | 19.09770 | 114.70209 | 34960 ft | 460 kts | 350° |
| 2026-04-26 12:02 | 19.16163 | 114.69671 | 34958 ft | 461 kts | 350° |
| 2026-04-26 12:02 | 19.22553 | 114.69140 | 34960 ft | 461 kts | 350° |
| 2026-04-26 12:03 | 19.28937 | 114.68614 | 34961 ft | 461 kts | 350° |
| 2026-04-26 12:03 | 19.35331 | 114.68070 | 34964 ft | 461 kts | 350° |
| 2026-04-26 12:04 | 19.41721 | 114.67521 | 34966 ft | 461 kts | 349° |
| 2026-04-26 12:04 | 19.48115 | 114.66971 | 34967 ft | 461 kts | 350° |
| 2026-04-26 12:05 | 19.54512 | 114.66430 | 34965 ft | 461 kts | 350° |
| 2026-04-26 12:05 | 19.60902 | 114.65893 | 34963 ft | 461 kts | 350° |
| 2026-04-26 12:06 | 19.67331 | 114.65358 | 34964 ft | 460 kts | 350° |
| 2026-04-26 12:06 | 19.73719 | 114.64818 | 34962 ft | 460 kts | 349° |
| 2026-04-26 12:07 | 19.80105 | 114.64266 | 34962 ft | 460 kts | 349° |
| 2026-04-26 12:07 | 19.86489 | 114.63707 | 34960 ft | 460 kts | 350° |
| 2026-04-26 12:08 | 19.92869 | 114.63166 | 34961 ft | 460 kts | 350° |
| 2026-04-26 12:08 | 19.98177 | 114.62726 | 34961 ft | 460 kts | 350° |
| 2026-04-26 12:09 | 20.04556 | 114.62182 | 34960 ft | 460 kts | 350° |
| 2026-04-26 12:09 | 20.10932 | 114.61634 | 34959 ft | 460 kts | 350° |
| 2026-04-26 12:10 | 20.17306 | 114.61095 | 34955 ft | 459 kts | 350° |
| 2026-04-26 12:10 | 20.23723 | 114.60547 | 34960 ft | 460 kts | 350° |
| 2026-04-26 12:11 | 20.30107 | 114.59998 | 34963 ft | 460 kts | 350° |
| 2026-04-26 12:11 | 20.36488 | 114.59452 | 34969 ft | 460 kts | 350° |
| 2026-04-26 12:12 | 20.42876 | 114.58907 | 34973 ft | 460 kts | 350° |
| 2026-04-26 12:12 | 20.49262 | 114.58359 | 34976 ft | 460 kts | 350° |
| 2026-04-26 12:13 | 20.55649 | 114.57810 | 34979 ft | 461 kts | 350° |
| 2026-04-26 12:13 | 20.61963 | 114.57263 | 34658 ft | 449 kts | 350° |
| 2026-04-26 12:13 | 20.65112 | 114.56988 | 33629 ft | 456 kts | 351° |
| 2026-04-26 12:14 | 20.68255 | 114.56715 | 32593 ft | 450 kts | 351° |
| 2026-04-26 12:14 | 20.71366 | 114.56447 | 31568 ft | 448 kts | 351° |
| 2026-04-26 12:14 | 20.74480 | 114.56178 | 30544 ft | 449 kts | 351° |
| 2026-04-26 12:14 | 20.77600 | 114.55905 | 29297 ft | 455 kts | 351° |
| 2026-04-26 12:15 | 20.80831 | 114.55612 | 27692 ft | 476 kts | 352° |
| 2026-04-26 12:15 | 20.84141 | 114.55524 | 27167 ft | 474 kts | 0° |
| 2026-04-26 12:15 | 20.87397 | 114.55983 | 26564 ft | 472 kts | 10° |
| 2026-04-26 12:15 | 20.90590 | 114.56809 | 25713 ft | 473 kts | 11° |
| 2026-04-26 12:16 | 20.93806 | 114.57558 | 24776 ft | 473 kts | 7° |
| 2026-04-26 12:16 | 20.97067 | 114.58052 | 23768 ft | 474 kts | 4° |
| 2026-04-26 12:16 | 21.00356 | 114.58101 | 22724 ft | 473 kts | 356° |
| 2026-04-26 12:16 | 21.03700 | 114.57947 | 21612 ft | 476 kts | 356° |
| 2026-04-26 12:17 | 21.06993 | 114.57800 | 21142 ft | 473 kts | 356° |
| 2026-04-26 12:17 | 21.10281 | 114.57657 | 20892 ft | 473 kts | 356° |
| 2026-04-26 12:17 | 21.13566 | 114.57512 | 20637 ft | 472 kts | 356° |
| 2026-04-26 12:17 | 21.16842 | 114.57360 | 20392 ft | 471 kts | 356° |
| 2026-04-26 12:18 | 21.20108 | 114.57209 | 20142 ft | 469 kts | 356° |
| 2026-04-26 12:18 | 21.23359 | 114.57060 | 19751 ft | 465 kts | 356° |
| 2026-04-26 12:18 | 21.26578 | 114.56910 | 18854 ft | 462 kts | 356° |
| 2026-04-26 12:18 | 21.29781 | 114.56763 | 18031 ft | 458 kts | 356° |
| 2026-04-26 12:19 | 21.32937 | 114.56618 | 17201 ft | 453 kts | 356° |
| 2026-04-26 12:19 | 21.36085 | 114.56478 | 16380 ft | 449 kts | 357° |
| 2026-04-26 12:19 | 21.39185 | 114.56340 | 15569 ft | 444 kts | 357° |
| 2026-04-26 12:19 | 21.42251 | 114.56196 | 14853 ft | 437 kts | 357° |
| 2026-04-26 12:20 | 21.45276 | 114.56056 | 14083 ft | 433 kts | 357° |
| 2026-04-26 12:20 | 21.48236 | 114.55800 | 13786 ft | 419 kts | 351° |
| 2026-04-26 12:20 | 21.51006 | 114.55076 | 13656 ft | 401 kts | 342° |
| 2026-04-26 12:20 | 21.53598 | 114.54174 | 13532 ft | 384 kts | 342° |
| 2026-04-26 12:21 | 21.56090 | 114.53310 | 13404 ft | 368 kts | 342° |
| 2026-04-26 12:21 | 21.58477 | 114.52484 | 13239 ft | 355 kts | 341° |
| 2026-04-26 12:21 | 21.60706 | 114.51446 | 12995 ft | 343 kts | 329° |
| 2026-04-26 12:21 | 21.62590 | 114.49971 | 12958 ft | 327 kts | 317° |
| 2026-04-26 12:22 | 21.64134 | 114.48261 | 12965 ft | 313 kts | 313° |
| 2026-04-26 12:22 | 21.65611 | 114.46560 | 12969 ft | 310 kts | 313° |
| 2026-04-26 12:22 | 21.67080 | 114.44866 | 12969 ft | 310 kts | 313° |
| 2026-04-26 12:22 | 21.68547 | 114.43171 | 12972 ft | 310 kts | 313° |
| 2026-04-26 12:23 | 21.70034 | 114.41450 | 12972 ft | 309 kts | 313° |
| 2026-04-26 12:23 | 21.71496 | 114.39755 | 12973 ft | 309 kts | 313° |
| 2026-04-26 12:23 | 21.72964 | 114.38065 | 12970 ft | 309 kts | 313° |
| 2026-04-26 12:23 | 21.74428 | 114.36382 | 12720 ft | 307 kts | 313° |
| 2026-04-26 12:24 | 21.75878 | 114.34705 | 12342 ft | 306 kts | 313° |
| 2026-04-26 12:24 | 21.77287 | 114.33073 | 11972 ft | 304 kts | 313° |
| 2026-04-26 12:24 | 21.78720 | 114.31409 | 11596 ft | 302 kts | 313° |
| 2026-04-26 12:25 | 21.81566 | 114.28114 | 10869 ft | 299 kts | 313° |
| 2026-04-26 12:25 | 21.82976 | 114.26480 | 10513 ft | 296 kts | 313° |
| 2026-04-26 12:25 | 21.84376 | 114.24858 | 10138 ft | 295 kts | 313° |
| 2026-04-26 12:25 | 21.85767 | 114.23245 | 9780 ft | 293 kts | 312° |
| 2026-04-26 12:26 | 21.87151 | 114.21641 | 9428 ft | 291 kts | 312° |
| 2026-04-26 12:26 | 21.88507 | 114.20067 | 9278 ft | 282 kts | 312° |
| 2026-04-26 12:26 | 21.89576 | 114.18565 | 9163 ft | 272 kts | 300° |
| 2026-04-26 12:26 | 21.90476 | 114.16807 | 8947 ft | 266 kts | 298° |
| 2026-04-26 12:27 | 21.91363 | 114.15066 | 8649 ft | 264 kts | 298° |
| 2026-04-26 12:27 | 21.92248 | 114.13340 | 8342 ft | 262 kts | 298° |
| 2026-04-26 12:27 | 21.93131 | 114.11628 | 8024 ft | 261 kts | 298° |
| 2026-04-26 12:27 | 21.94018 | 114.09921 | 7708 ft | 260 kts | 299° |
| 2026-04-26 12:28 | 21.94898 | 114.08227 | 7391 ft | 259 kts | 299° |
| 2026-04-26 12:28 | 21.95772 | 114.06536 | 7080 ft | 257 kts | 298° |
| 2026-04-26 12:28 | 21.96639 | 114.04857 | 6769 ft | 256 kts | 299° |
| 2026-04-26 12:28 | 21.97503 | 114.03185 | 6440 ft | 255 kts | 299° |
| 2026-04-26 12:29 | 21.98363 | 114.01515 | 6125 ft | 254 kts | 299° |
| 2026-04-26 12:29 | 21.99227 | 113.99837 | 5800 ft | 252 kts | 299° |
| 2026-04-26 12:29 | 22.00907 | 113.96582 | 5368 ft | 238 kts | 299° |
| 2026-04-26 12:30 | 22.01694 | 113.95056 | 5129 ft | 230 kts | 299° |
| 2026-04-26 12:30 | 22.02467 | 113.93555 | 4760 ft | 229 kts | 299° |
| 2026-04-26 12:30 | 22.03237 | 113.92060 | 4357 ft | 228 kts | 300° |
| 2026-04-26 12:31 | 22.04769 | 113.89084 | 3998 ft | 229 kts | 300° |
| 2026-04-26 12:31 | 22.05545 | 113.87576 | 4001 ft | 231 kts | 299° |
| 2026-04-26 12:31 | 22.06324 | 113.86060 | 4006 ft | 231 kts | 299° |
| 2026-04-26 12:31 | 22.07102 | 113.84544 | 3999 ft | 232 kts | 300° |
| 2026-04-26 12:32 | 22.07885 | 113.83024 | 4006 ft | 232 kts | 299° |
| 2026-04-26 12:32 | 22.08666 | 113.81506 | 4005 ft | 232 kts | 300° |
| 2026-04-26 12:32 | 22.10325 | 113.78532 | 3993 ft | 232 kts | 310° |
| 2026-04-26 12:33 | 22.11481 | 113.77337 | 3874 ft | 230 kts | 324° |
| 2026-04-26 12:33 | 22.12863 | 113.76478 | 3748 ft | 229 kts | 337° |
| 2026-04-26 12:33 | 22.14313 | 113.75771 | 3618 ft | 230 kts | 336° |
| 2026-04-26 12:33 | 22.15765 | 113.75055 | 3374 ft | 227 kts | 336° |
| 2026-04-26 12:34 | 22.17178 | 113.74353 | 3112 ft | 221 kts | 336° |
| 2026-04-26 12:34 | 22.18562 | 113.73662 | 2852 ft | 216 kts | 336° |
| 2026-04-26 12:34 | 22.19909 | 113.72987 | 2603 ft | 211 kts | 336° |
| 2026-04-26 12:34 | 22.21224 | 113.72328 | 2354 ft | 206 kts | 336° |
| 2026-04-26 12:35 | 22.22536 | 113.71797 | 2128 ft | 197 kts | 354° |
| 2026-04-26 12:35 | 22.23862 | 113.71943 | 1985 ft | 191 kts | 22° |
| 2026-04-26 12:35 | 22.24960 | 113.72708 | 1864 ft | 188 kts | 43° |
| 2026-04-26 12:35 | 22.25951 | 113.73624 | 1736 ft | 187 kts | 42° |
| 2026-04-26 12:36 | 22.26935 | 113.74530 | 1619 ft | 180 kts | 42° |
| 2026-04-26 12:36 | 22.27822 | 113.75416 | 1549 ft | 170 kts | 51° |
| 2026-04-26 12:36 | 22.28378 | 113.76525 | 1506 ft | 165 kts | 72° |
| 2026-04-26 12:36 | 22.28749 | 113.77674 | 1507 ft | 164 kts | 71° |
| 2026-04-26 12:37 | 22.29123 | 113.78829 | 1513 ft | 153 kts | 71° |
| 2026-04-26 12:37 | 22.29466 | 113.79889 | 1499 ft | 147 kts | 72° |
| 2026-04-26 12:37 | 22.29800 | 113.80923 | 1392 ft | 145 kts | 71° |
| 2026-04-26 12:37 | 22.30132 | 113.81950 | 1241 ft | 144 kts | 71° |
| 2026-04-26 12:38 | 22.30461 | 113.82969 | 1063 ft | 144 kts | 72° |
| 2026-04-26 12:38 | 22.30789 | 113.83985 | 879 ft | 143 kts | 71° |
| 2026-04-26 12:38 | 22.31116 | 113.84997 | 685 ft | 143 kts | 71° |
| 2026-04-26 12:38 | 22.31443 | 113.86009 | 502 ft | 142 kts | 72° |
| 2026-04-26 12:39 | 22.31767 | 113.87015 | 316 ft | 141 kts | 72° |
| 2026-04-26 12:39 | 22.32090 | 113.88012 | 118 ft | 140 kts | 71° |
| 2026-04-26 12:39 | 22.32400 | 113.88960 | 39 ft | 121 kts | 71° |
| 2026-04-26 12:39 | 22.32620 | 113.89648 | 37 ft | 72 kts | 71° |
| 2026-04-26 12:40 | 22.32706 | 113.89973 | 37 ft | 30 kts | 87° |
| 2026-04-26 12:40 | 22.32686 | 113.90172 | 38 ft | 20 kts | 101° |
| 2026-04-26 12:40 | 22.32668 | 113.90279 | 38 ft | 5 kts | 100° |
| 2026-04-26 12:40 | 22.32666 | 113.90287 | 38 ft | 3 kts | 104° |
| 2026-04-26 12:41 | 22.32660 | 113.90312 | 38 ft | 7 kts | 106° |
| 2026-04-26 12:41 | 22.32634 | 113.90362 | 37 ft | 10 kts | 141° |
| 2026-04-26 12:41 | 22.32522 | 113.90406 | 37 ft | 21 kts | 160° |
| 2026-04-26 12:41 | 22.32327 | 113.90482 | 37 ft | 23 kts | 160° |
| 2026-04-26 12:42 | 22.32225 | 113.90520 | 37 ft | 24 kts | 162° |
| 2026-04-26 12:42 | 22.32064 | 113.90578 | 37 ft | 25 kts | 160° |
| 2026-04-26 12:42 | 22.31940 | 113.90625 | 36 ft | 13 kts | 160° |
| 2026-04-26 12:42 | 22.31848 | 113.90662 | 36 ft | 15 kts | 160° |
| 2026-04-26 12:43 | 22.31774 | 113.90688 | 37 ft | 6 kts | 161° |
| 2026-04-26 12:43 | 22.31752 | 113.90696 | 37 ft | 1 kts | 161° |
| 2026-04-26 12:43 | 22.31751 | 113.90696 | 37 ft | 0 kts | 161° |
| 2026-04-26 12:44 | 22.31749 | 113.90698 | 37 ft | 2 kts | 161° |
| 2026-04-26 12:44 | 22.31704 | 113.90713 | 36 ft | 9 kts | 164° |
| 2026-04-26 12:45 | 22.31653 | 113.90684 | 37 ft | 10 kts | 244° |
| 2026-04-26 12:45 | 22.31630 | 113.90607 | 35 ft | 12 kts | 251° |
| 2026-04-26 12:45 | 22.31601 | 113.90517 | 36 ft | 14 kts | 251° |
| 2026-04-26 12:45 | 22.31571 | 113.90422 | 35 ft | 15 kts | 251° |
| 2026-04-26 12:46 | 22.31534 | 113.90311 | 36 ft | 17 kts | 250° |
| 2026-04-26 12:46 | 22.31494 | 113.90186 | 36 ft | 18 kts | 251° |
| 2026-04-26 12:46 | 22.31451 | 113.90053 | 36 ft | 20 kts | 250° |
| 2026-04-26 12:46 | 22.31404 | 113.89910 | 37 ft | 21 kts | 251° |
| 2026-04-26 12:47 | 22.31364 | 113.89790 | 37 ft | 11 kts | 240° |
| 2026-04-26 12:47 | 22.31298 | 113.89776 | 37 ft | 9 kts | 165° |
| 2026-04-26 12:47 | 22.31245 | 113.89795 | 37 ft | 5 kts | 161° |
| 2026-04-26 12:47 | 22.31233 | 113.89799 | 37 ft | 0 kts | 161° |
| 2026-04-26 12:48 | 22.31231 | 113.89800 | 37 ft | 1 kts | 161° |
| 2026-04-26 12:48 | 22.31204 | 113.89810 | 36 ft | 6 kts | 161° |
| 2026-04-26 12:48 | 22.31147 | 113.89832 | 37 ft | 11 kts | 160° |
| 2026-04-26 12:48 | 22.31071 | 113.89861 | 36 ft | 12 kts | 160° |
| 2026-04-26 12:49 | 22.30985 | 113.89896 | 36 ft | 14 kts | 146° |
| 2026-04-26 12:49 | 22.30974 | 113.89994 | 37 ft | 15 kts | 72° |
| 2026-04-26 12:49 | 22.31010 | 113.90105 | 37 ft | 16 kts | 71° |
| 2026-04-26 12:49 | 22.31049 | 113.90226 | 37 ft | 18 kts | 70° |
| 2026-04-26 12:50 | 22.31092 | 113.90361 | 36 ft | 19 kts | 71° |
| 2026-04-26 12:50 | 22.31138 | 113.90503 | 36 ft | 21 kts | 71° |
| 2026-04-26 12:50 | 22.31187 | 113.90655 | 37 ft | 22 kts | 71° |
| 2026-04-26 12:50 | 22.31239 | 113.90814 | 37 ft | 23 kts | 70° |
| 2026-04-26 12:51 | 22.31293 | 113.90981 | 36 ft | 24 kts | 71° |
| 2026-04-26 12:51 | 22.31345 | 113.91141 | 38 ft | 18 kts | 71° |
| 2026-04-26 12:51 | 22.31382 | 113.91256 | 38 ft | 16 kts | 71° |
| 2026-04-26 12:51 | 22.31332 | 113.91348 | 38 ft | 17 kts | 160° |
| 2026-04-26 12:52 | 22.31214 | 113.91391 | 37 ft | 19 kts | 161° |
| 2026-04-26 12:52 | 22.31093 | 113.91437 | 37 ft | 18 kts | 160° |
| 2026-04-26 12:52 | 22.31032 | 113.91478 | 36 ft | 9 kts | 116° |
| 2026-04-26 12:52 | 22.31021 | 113.91547 | 37 ft | 9 kts | 113° |
| 2026-04-26 12:53 | 22.30980 | 113.91584 | 37 ft | 8 kts | 159° |
| 2026-04-26 12:53 | 22.30918 | 113.91605 | 37 ft | 9 kts | 161° |
| 2026-04-26 12:53 | 22.30862 | 113.91625 | 37 ft | 9 kts | 161° |
| 2026-04-26 12:53 | 22.30801 | 113.91649 | 37 ft | 7 kts | 158° |
| 2026-04-26 12:54 | 22.30791 | 113.91694 | 37 ft | 8 kts | 72° |
| 2026-04-26 12:54 | 22.30811 | 113.91753 | 34 ft | 8 kts | 71° |
| 2026-04-26 12:54 | 22.30816 | 113.91768 | 37 ft | 1 kts | 70° |